createdAt,value
2024-02-16T00:02:25.166Z,8.65
2024-02-16T00:07:25.574Z,7.68
2024-02-16T00:09:55.640Z,10.50
2024-02-16T00:12:26.085Z,12.13
2024-02-16T00:14:56.075Z,9.30
2024-02-16T00:17:29.818Z,10.65
2024-02-16T00:20:00.088Z,9.40
2024-02-16T00:22:30.344Z,12.40
2024-02-16T00:25:00.717Z,13.38
2024-02-16T00:27:30.798Z,9.13
2024-02-16T00:30:01.122Z,15.82
2024-02-16T00:32:33.736Z,7.45
2024-02-16T00:35:04.051Z,7.40
2024-02-16T00:37:34.103Z,9.50
2024-02-16T00:40:04.655Z,6.45
2024-02-16T00:42:34.691Z,7.38
2024-02-16T00:45:05.422Z,8.00
2024-02-16T00:47:38.441Z,9.10
2024-02-16T00:52:42.157Z,5.75
2024-02-16T00:55:12.129Z,8.10
2024-02-16T00:57:42.323Z,9.13
2024-02-16T01:00:17.179Z,8.70
2024-02-16T01:02:50.241Z,6.80
2024-02-16T01:05:21.177Z,9.82
2024-02-16T01:07:51.073Z,5.50
2024-02-16T01:10:20.936Z,6.10
2024-02-16T01:12:51.208Z,7.07
2024-02-16T01:15:21.111Z,6.95
2024-02-16T01:17:54.063Z,12.52
2024-02-16T01:20:24.005Z,9.35
2024-02-16T01:22:54.080Z,11.50
2024-02-16T01:25:24.124Z,6.97
2024-02-16T01:27:54.398Z,10.05
2024-02-16T01:30:24.342Z,9.00
2024-02-16T01:32:56.964Z,12.52
2024-02-16T01:35:26.957Z,7.93
2024-02-16T01:37:57.127Z,8.43
2024-02-16T01:40:27.731Z,7.30
2024-02-16T01:42:57.754Z,8.18
2024-02-16T01:45:28.195Z,8.50
2024-02-16T01:48:01.663Z,8.00
2024-02-16T01:50:37.195Z,6.47
2024-02-16T01:53:08.305Z,7.82
2024-02-16T01:55:38.298Z,8.00
2024-02-16T01:58:08.948Z,7.38
2024-02-16T02:00:38.904Z,5.75
2024-02-16T02:03:11.943Z,8.60
2024-02-16T02:08:13.644Z,7.45
2024-02-16T02:10:43.732Z,8.73
2024-02-16T02:13:14.209Z,5.50
2024-02-16T02:15:44.200Z,7.60
2024-02-16T02:18:17.166Z,6.50
2024-02-16T02:20:47.224Z,9.15
2024-02-16T02:23:20.327Z,9.85
2024-02-16T02:28:20.525Z,10.15
2024-02-16T02:30:50.784Z,7.47
2024-02-16T02:33:21.521Z,6.13
2024-02-16T02:35:52.680Z,9.77
2024-02-16T02:38:25.272Z,8.77
2024-02-16T02:40:55.369Z,6.80
2024-02-16T02:43:25.267Z,9.55
2024-02-16T02:45:55.401Z,6.65
2024-02-16T02:48:25.527Z,5.32
2024-02-16T02:50:55.694Z,5.03
2024-02-16T02:53:28.303Z,9.27
2024-02-16T02:55:58.544Z,10.27
2024-02-16T02:58:28.544Z,7.05
2024-02-16T03:00:58.963Z,11.77
2024-02-16T03:03:30.824Z,7.53
2024-02-16T03:06:01.083Z,7.97
2024-02-16T03:08:33.767Z,7.18
2024-02-16T03:11:05.925Z,6.93
2024-02-16T03:13:35.859Z,9.90
2024-02-16T03:16:05.945Z,6.85
2024-02-16T03:18:36.434Z,6.95
2024-02-16T03:21:06.756Z,8.18
2024-02-16T03:23:39.365Z,6.32
2024-02-16T03:26:09.354Z,11.07
2024-02-16T03:28:39.303Z,7.95
2024-02-16T03:31:09.316Z,6.03
2024-02-16T03:33:39.737Z,6.82
2024-02-16T03:36:10.350Z,5.65
2024-02-16T03:38:44.658Z,9.82
2024-02-16T03:41:17.688Z,7.22
2024-02-16T03:46:17.550Z,4.93
2024-02-16T03:48:47.989Z,6.22
2024-02-16T03:51:18.251Z,8.85
2024-02-16T03:53:50.841Z,7.70
2024-02-16T03:56:22.572Z,4.72
2024-02-16T03:58:52.340Z,6.43
2024-02-16T04:01:23.740Z,9.20
2024-02-16T04:03:54.283Z,4.03
2024-02-16T04:06:24.180Z,6.35
2024-02-16T04:08:57.026Z,9.65
2024-02-16T04:11:30.771Z,6.32
2024-02-16T04:14:00.737Z,9.73
2024-02-16T04:16:30.875Z,6.03
2024-02-16T04:19:01.264Z,4.80
2024-02-16T04:21:31.822Z,4.25
2024-02-16T04:24:04.598Z,7.40
2024-02-16T04:26:34.778Z,7.72
2024-02-16T04:29:05.667Z,8.82
2024-02-16T04:31:35.718Z,6.68
2024-02-16T04:34:06.077Z,5.03
2024-02-16T04:36:36.563Z,8.95
2024-02-16T04:39:11.414Z,9.93
2024-02-16T04:41:41.752Z,7.32
2024-02-16T04:44:12.118Z,6.32
2024-02-16T04:46:42.052Z,7.13
2024-02-16T04:49:12.442Z,9.63
2024-02-16T04:51:42.970Z,6.72
2024-02-16T04:54:15.569Z,9.25
2024-02-16T04:56:45.728Z,10.25
2024-02-16T04:59:15.757Z,6.93
2024-02-16T05:01:47.257Z,9.57
2024-02-16T05:04:19.149Z,10.27
2024-02-16T05:06:50.101Z,6.20
2024-02-16T05:09:24.359Z,6.32
2024-02-16T05:11:54.928Z,7.00
2024-02-16T05:14:25.337Z,9.68
2024-02-16T05:16:57.345Z,9.60
2024-02-16T05:19:29.124Z,10.18
2024-02-16T05:21:59.556Z,6.15
2024-02-16T05:24:32.142Z,11.98
2024-02-16T05:27:02.371Z,9.52
2024-02-16T05:29:32.493Z,12.60
2024-02-16T05:32:02.422Z,7.05
2024-02-16T05:34:39.303Z,7.97
2024-02-16T05:37:10.847Z,9.43
2024-02-16T05:39:55.531Z,8.48
2024-02-16T05:42:26.533Z,6.13
2024-02-16T05:44:56.444Z,6.28
2024-02-16T05:47:26.722Z,8.15
2024-02-16T05:49:56.682Z,6.97
2024-02-16T05:52:26.847Z,8.32
2024-02-16T05:54:59.470Z,6.10
2024-02-16T05:57:29.525Z,8.77
2024-02-16T06:00:01.186Z,6.70
2024-02-16T06:02:31.529Z,8.13
2024-02-16T06:05:01.659Z,11.60
2024-02-16T06:07:31.770Z,9.00
2024-02-16T06:10:07.065Z,9.48
2024-02-16T06:12:37.419Z,6.43
2024-02-16T06:15:08.155Z,10.45
2024-02-16T06:17:38.690Z,12.05
2024-02-16T06:20:10.861Z,9.00
2024-02-16T06:22:41.257Z,11.65
2024-02-16T06:25:14.449Z,11.18
2024-02-16T06:27:44.891Z,7.55
2024-02-16T06:30:16.014Z,9.23
2024-02-16T06:32:45.922Z,7.95
2024-02-16T06:35:16.282Z,7.30
2024-02-16T06:37:46.314Z,8.90
2024-02-16T06:40:19.246Z,7.25
2024-02-16T06:42:49.437Z,11.07
2024-02-16T06:45:19.797Z,14.98
2024-02-16T06:47:50.229Z,14.73
2024-02-16T06:50:20.305Z,17.52
2024-02-16T06:52:50.812Z,10.75
2024-02-16T06:55:23.404Z,12.88
2024-02-16T06:57:53.728Z,15.73
2024-02-16T07:00:24.415Z,9.02
2024-02-16T07:02:54.730Z,14.82
2024-02-16T07:05:24.641Z,8.05
2024-02-16T07:07:54.512Z,7.90
2024-02-16T07:10:26.997Z,7.72
2024-02-16T07:12:59.993Z,8.38
2024-02-16T07:15:30.790Z,9.40
2024-02-16T07:18:02.366Z,6.55
2024-02-16T07:20:32.459Z,5.53
2024-02-16T07:23:02.476Z,8.90
2024-02-16T07:25:35.375Z,7.00
2024-02-16T07:28:06.276Z,12.80
2024-02-16T07:30:42.609Z,7.35
2024-02-16T07:33:13.614Z,5.97
2024-02-16T07:35:43.833Z,6.35
2024-02-16T07:38:14.330Z,10.77
2024-02-16T07:40:47.197Z,7.10
2024-02-16T07:43:17.176Z,7.90
2024-02-16T07:45:47.303Z,8.73
2024-02-16T07:48:17.495Z,7.70
2024-02-16T07:50:47.471Z,6.05
2024-02-16T07:53:17.443Z,8.43
2024-02-16T07:55:49.973Z,7.72
2024-02-16T07:58:19.828Z,6.93
2024-02-16T08:00:49.778Z,6.45
2024-02-16T08:03:20.734Z,8.77
2024-02-16T08:05:51.144Z,5.68
2024-02-16T08:08:21.741Z,6.40
2024-02-16T08:10:54.504Z,5.70
2024-02-16T08:13:24.588Z,5.32
2024-02-16T08:15:55.354Z,6.80
2024-02-16T08:18:25.790Z,6.65
2024-02-16T08:20:55.883Z,4.90
2024-02-16T08:23:26.418Z,5.20
2024-02-16T08:25:59.300Z,7.65
2024-02-16T08:28:29.548Z,4.35
2024-02-16T08:30:59.454Z,7.80
2024-02-16T08:33:29.529Z,6.10
2024-02-16T08:35:59.614Z,5.50
2024-02-16T08:38:29.692Z,5.00
2024-02-16T08:41:02.127Z,5.97
2024-02-16T08:43:32.359Z,19.10
2024-02-16T08:46:02.306Z,8.07
2024-02-16T08:48:32.696Z,9.27
2024-02-16T08:51:02.659Z,6.07
2024-02-16T08:53:32.894Z,7.97
2024-02-16T08:56:05.503Z,5.97
2024-02-16T08:58:35.713Z,12.52
2024-02-16T09:01:05.770Z,6.95
2024-02-16T09:03:40.174Z,7.75
2024-02-16T09:06:10.964Z,9.13
2024-02-16T09:08:40.979Z,14.80
2024-02-16T09:11:13.549Z,9.35
2024-02-16T09:13:43.987Z,9.82
2024-02-16T09:16:11.261Z,6.03
2024-02-16T09:18:41.495Z,7.90
2024-02-16T09:21:12.006Z,8.05
2024-02-16T09:23:42.147Z,8.80
2024-02-16T09:26:14.739Z,7.43
2024-02-16T09:28:45.661Z,7.40
2024-02-16T09:31:18.609Z,5.88
2024-02-16T09:33:48.892Z,7.22
2024-02-16T09:36:18.946Z,10.85
2024-02-16T09:38:49.355Z,9.57
2024-02-16T09:41:25.158Z,11.38
2024-02-16T09:43:56.775Z,7.82
2024-02-16T09:46:27.382Z,7.70
2024-02-16T09:48:58.918Z,8.32
2024-02-16T09:51:29.252Z,10.32
2024-02-16T09:54:00.057Z,13.35
2024-02-16T09:56:33.762Z,13.20
2024-02-16T09:59:06.203Z,7.32
2024-02-16T10:01:37.595Z,6.85
2024-02-16T10:04:11.403Z,8.65
2024-02-16T10:06:52.049Z,10.10
2024-02-16T10:09:30.554Z,9.50
2024-02-16T10:12:03.207Z,8.02
2024-02-16T10:14:33.522Z,8.70
2024-02-16T10:17:04.549Z,7.25
2024-02-16T10:19:42.626Z,6.30
2024-02-16T10:22:14.281Z,5.50
2024-02-16T10:24:45.489Z,10.10
2024-02-16T10:27:21.857Z,8.30
2024-02-16T10:29:53.237Z,8.30
2024-02-16T10:32:24.549Z,7.30
2024-02-16T10:34:55.681Z,8.55
2024-02-16T10:37:25.684Z,5.22
2024-02-16T10:39:58.765Z,9.88
2024-02-16T10:42:32.335Z,8.40
2024-02-16T10:45:02.921Z,7.07
2024-02-16T10:47:32.809Z,8.05
2024-02-16T10:50:02.964Z,5.85
2024-02-16T10:52:33.130Z,4.85
2024-02-16T10:55:04.854Z,6.35
2024-02-16T10:57:39.500Z,3.58
2024-02-16T11:00:12.950Z,5.95
2024-02-16T11:03:00.304Z,5.97
2024-02-16T11:05:37.712Z,6.57
2024-02-16T11:08:08.162Z,7.47
2024-02-16T11:10:37.989Z,11.93
2024-02-16T11:13:10.594Z,6.10
2024-02-16T11:15:41.261Z,5.85
2024-02-16T11:18:11.238Z,8.75
2024-02-16T11:20:43.145Z,6.32
2024-02-16T11:23:15.609Z,9.70
2024-02-16T11:25:53.913Z,7.95
2024-02-16T11:28:26.923Z,6.07
2024-02-16T11:30:59.679Z,7.47
2024-02-16T11:33:31.759Z,6.47
2024-02-16T11:36:02.936Z,5.00
2024-02-16T11:38:34.676Z,7.20
2024-02-16T11:41:05.635Z,8.40
2024-02-16T11:43:38.516Z,8.25
2024-02-16T11:46:15.922Z,8.52
2024-02-16T11:48:43.409Z,10.70
2024-02-16T11:51:13.863Z,6.80
2024-02-16T11:53:45.122Z,5.82
2024-02-16T11:56:25.963Z,5.13
2024-02-16T11:58:58.712Z,7.35
2024-02-16T12:01:28.987Z,8.50
2024-02-16T12:03:58.852Z,8.40
2024-02-16T12:06:29.240Z,10.40
2024-02-16T12:08:59.264Z,6.15
2024-02-16T12:11:29.319Z,6.07
2024-02-16T12:14:05.872Z,6.72
2024-02-16T12:16:35.889Z,11.88
2024-02-16T12:19:09.431Z,7.65
2024-02-16T12:21:39.521Z,12.50
2024-02-16T12:24:09.721Z,9.52
2024-02-16T12:26:39.652Z,5.40
2024-02-16T12:29:14.048Z,6.45
2024-02-16T12:31:44.692Z,6.25
2024-02-16T12:34:15.153Z,5.40
2024-02-16T12:36:49.840Z,6.88
2024-02-16T12:39:21.293Z,6.88
2024-02-16T12:41:51.692Z,6.88
2024-02-16T12:44:24.175Z,6.72
2024-02-16T12:46:54.388Z,6.85
2024-02-16T12:49:24.899Z,6.07
2024-02-16T12:51:55.741Z,5.75
2024-02-16T12:54:27.103Z,4.07
2024-02-16T12:56:57.105Z,5.35
2024-02-16T12:59:29.792Z,5.13
2024-02-16T13:01:59.763Z,6.75
2024-02-16T13:04:32.996Z,7.43
2024-02-16T13:07:03.048Z,6.68
2024-02-16T13:09:33.216Z,10.07
2024-02-16T13:12:03.159Z,20.40
2024-02-16T13:14:36.122Z,8.80
2024-02-16T13:17:06.034Z,6.85
2024-02-16T13:19:36.327Z,5.35
2024-02-16T13:22:06.428Z,4.63
2024-02-16T13:24:36.766Z,8.57
2024-02-16T13:27:07.740Z,5.57
2024-02-16T13:29:40.192Z,7.75
2024-02-16T13:32:10.505Z,6.00
2024-02-16T13:34:41.300Z,6.30
2024-02-16T13:37:11.658Z,5.47
2024-02-16T13:39:41.815Z,8.55
2024-02-16T13:42:12.503Z,5.35
2024-02-16T13:44:45.100Z,5.60
2024-02-16T13:47:18.420Z,3.70
2024-02-16T13:49:50.723Z,4.93
2024-02-16T13:52:21.001Z,3.60
2024-02-16T13:54:50.854Z,7.57
2024-02-16T13:57:21.077Z,10.38
2024-02-16T13:59:54.428Z,5.65
2024-02-16T14:02:24.866Z,7.18
2024-02-16T14:04:58.129Z,8.20
2024-02-16T14:07:28.256Z,6.85
2024-02-16T14:09:58.235Z,6.60
2024-02-16T14:12:28.480Z,4.93
2024-02-16T14:15:01.081Z,8.93
2024-02-16T14:17:30.901Z,6.13
2024-02-16T14:20:01.276Z,5.13
2024-02-16T14:22:31.743Z,5.03
2024-02-16T14:25:01.619Z,8.70
2024-02-16T14:27:31.635Z,6.35
2024-02-16T14:30:04.336Z,5.47
2024-02-16T14:32:34.497Z,5.45
2024-02-16T14:35:06.733Z,22.38
2024-02-16T14:37:37.378Z,7.97
2024-02-16T14:40:11.518Z,7.10
2024-02-16T14:42:42.942Z,7.78
2024-02-16T14:45:21.380Z,6.75
2024-02-16T14:47:52.273Z,6.30
2024-02-16T14:50:22.604Z,5.82
2024-02-16T14:52:52.857Z,6.25
2024-02-16T14:55:22.780Z,5.05
2024-02-16T14:57:53.266Z,4.68
2024-02-16T15:00:25.998Z,6.05
2024-02-16T15:02:55.997Z,5.20
2024-02-16T15:05:25.866Z,7.03
2024-02-16T15:07:56.037Z,9.77
2024-02-16T15:10:26.085Z,7.35
2024-02-16T15:12:56.174Z,11.70
2024-02-16T15:15:29.084Z,8.27
2024-02-16T15:18:01.916Z,5.78
2024-02-16T15:20:32.180Z,8.85
2024-02-16T15:23:02.131Z,11.52
2024-02-16T15:25:31.972Z,6.40
2024-02-16T15:28:02.074Z,5.63
2024-02-16T15:30:34.678Z,10.07
2024-02-16T15:33:04.792Z,6.43
2024-02-16T15:35:35.428Z,5.82
2024-02-16T15:38:05.677Z,8.48
2024-02-16T15:40:35.550Z,7.60
2024-02-16T15:43:07.210Z,6.10
2024-02-16T15:45:42.144Z,7.25
2024-02-16T15:48:13.791Z,8.70
2024-02-16T15:50:43.760Z,9.45
2024-02-16T15:53:13.814Z,6.43
2024-02-16T15:55:44.089Z,17.00
2024-02-16T15:58:14.365Z,12.77
2024-02-16T16:00:46.998Z,11.90
2024-02-16T16:03:18.684Z,8.15
2024-02-16T16:05:48.711Z,7.78
2024-02-16T16:08:21.811Z,10.60
2024-02-16T16:13:23.352Z,12.85
2024-02-16T16:15:56.202Z,15.02
2024-02-16T16:18:26.331Z,11.55
2024-02-16T16:20:56.495Z,12.30
2024-02-16T16:23:26.370Z,13.18
2024-02-16T16:25:58.125Z,11.23
2024-02-16T16:28:30.824Z,15.07
2024-02-16T16:31:03.499Z,11.63
2024-02-16T16:33:33.964Z,12.48
2024-02-16T16:36:04.561Z,16.52
2024-02-16T16:38:34.823Z,12.48
2024-02-16T16:41:04.889Z,9.93
2024-02-16T16:43:35.387Z,14.98
2024-02-16T16:46:09.272Z,8.95
2024-02-16T16:48:39.959Z,14.40
2024-02-16T16:51:09.924Z,8.75
2024-02-16T16:53:40.074Z,13.23
2024-02-16T16:56:10.476Z,10.80
2024-02-16T16:58:40.737Z,10.75
2024-02-16T17:01:18.968Z,9.68
2024-02-16T17:03:49.082Z,11.63
2024-02-16T17:06:19.284Z,11.07
2024-02-16T17:11:19.827Z,12.27
2024-02-16T17:13:50.422Z,13.00
2024-02-16T17:16:23.369Z,5.63
2024-02-16T17:18:53.693Z,12.75
2024-02-16T17:21:23.854Z,8.27
2024-02-16T17:23:53.787Z,12.00
2024-02-16T17:26:23.771Z,10.68
2024-02-16T17:28:54.090Z,15.68
2024-02-16T17:31:26.577Z,14.98
2024-02-16T17:33:57.109Z,24.67
2024-02-16T17:36:27.347Z,19.58
2024-02-16T17:38:57.679Z,27.88
2024-02-16T17:41:27.843Z,23.67
2024-02-16T17:43:57.938Z,14.38
2024-02-16T17:46:30.691Z,14.35
2024-02-16T17:49:01.054Z,12.82
2024-02-16T17:51:31.236Z,23.00
2024-02-16T17:54:01.233Z,16.48
2024-02-16T17:56:31.207Z,12.88
2024-02-16T17:59:01.118Z,12.63
2024-02-16T18:01:33.948Z,13.75
2024-02-16T18:04:04.615Z,13.50
2024-02-16T18:06:36.329Z,12.85
2024-02-16T18:09:08.755Z,10.68
2024-02-16T18:11:38.772Z,13.40
2024-02-16T18:14:08.770Z,34.05
2024-02-16T18:16:41.249Z,24.20
2024-02-16T18:19:11.605Z,24.00
2024-02-16T18:21:41.582Z,17.60
2024-02-16T18:24:11.857Z,14.85
2024-02-16T18:26:41.905Z,10.85
2024-02-16T18:29:11.839Z,14.27
2024-02-16T18:31:44.187Z,8.07
2024-02-16T18:34:14.088Z,13.73
2024-02-16T18:36:44.177Z,8.10
2024-02-16T18:39:14.122Z,10.63
2024-02-16T18:41:44.358Z,11.27
2024-02-16T18:44:15.044Z,13.45
2024-02-16T18:46:47.535Z,11.35
2024-02-16T18:49:18.401Z,10.65
2024-02-16T18:51:48.490Z,9.85
2024-02-16T18:54:21.986Z,12.07
2024-02-16T18:56:51.901Z,14.30
2024-02-16T18:59:22.158Z,10.05
2024-02-16T19:01:55.027Z,10.43
2024-02-16T19:04:25.384Z,10.15
2024-02-16T19:06:55.637Z,12.48
2024-02-16T19:09:25.783Z,13.82
2024-02-16T19:11:55.964Z,9.23
2024-02-16T19:14:26.725Z,9.88
2024-02-16T19:16:59.540Z,7.63
2024-02-16T19:19:31.895Z,9.65
2024-02-16T19:22:01.979Z,14.32
2024-02-16T19:24:36.958Z,19.58
2024-02-16T19:27:13.440Z,17.40
2024-02-16T19:29:43.486Z,16.67
2024-02-16T19:32:16.059Z,17.38
2024-02-16T19:34:46.443Z,9.45
2024-02-16T19:37:16.725Z,15.05
2024-02-16T19:39:46.731Z,15.23
2024-02-16T19:42:16.822Z,16.85
2024-02-16T19:44:46.891Z,14.00
2024-02-16T19:47:19.404Z,18.40
2024-02-16T19:49:49.667Z,11.23
2024-02-16T19:52:22.598Z,16.38
2024-02-16T19:54:53.006Z,13.68
2024-02-16T19:57:23.032Z,11.23
2024-02-16T19:59:53.658Z,15.52
2024-02-16T20:02:26.424Z,12.57
2024-02-16T20:04:56.773Z,11.30
2024-02-16T20:07:29.635Z,14.75
2024-02-16T20:10:01.398Z,17.73
2024-02-16T20:12:31.920Z,13.27
2024-02-16T20:15:01.814Z,20.45
2024-02-16T20:17:34.450Z,19.85
2024-02-16T20:20:06.904Z,12.52
2024-02-16T20:22:37.249Z,8.85
2024-02-16T20:25:08.780Z,14.85
2024-02-16T20:27:39.276Z,10.27
2024-02-16T20:30:10.123Z,16.00
2024-02-16T20:32:44.834Z,12.30
2024-02-16T20:35:15.530Z,12.43
2024-02-16T20:37:46.945Z,12.30
2024-02-16T20:40:17.371Z,11.43
2024-02-16T20:42:47.831Z,13.23
2024-02-16T20:45:19.187Z,14.25
2024-02-16T20:47:51.803Z,14.75
2024-02-16T20:50:23.387Z,15.05
2024-02-16T20:52:54.856Z,10.35
2024-02-16T20:55:26.808Z,13.35
2024-02-16T20:57:57.269Z,10.00
2024-02-16T21:00:27.274Z,13.32
2024-02-16T21:03:00.831Z,13.70
2024-02-16T21:05:30.837Z,16.20
2024-02-16T21:08:02.169Z,17.95
2024-02-16T21:10:32.377Z,11.63
2024-02-16T21:13:02.481Z,13.27
2024-02-16T21:15:32.343Z,14.13
2024-02-16T21:18:06.138Z,17.63
2024-02-16T21:20:36.403Z,14.50
2024-02-16T21:23:07.015Z,9.40
2024-02-16T21:25:37.057Z,11.57
2024-02-16T21:28:09.280Z,17.00
2024-02-16T21:30:41.115Z,17.05
2024-02-16T21:33:15.271Z,14.57
2024-02-16T21:35:45.668Z,12.80
2024-02-16T21:38:15.617Z,18.25
2024-02-16T21:40:45.930Z,11.38
2024-02-16T21:43:15.770Z,18.70
2024-02-16T21:45:45.681Z,13.45
2024-02-16T21:48:25.726Z,16.13
2024-02-16T21:51:02.845Z,14.60
2024-02-16T21:53:32.738Z,16.73
2024-02-16T21:56:02.635Z,12.32
2024-02-16T21:58:33.457Z,8.70
2024-02-16T22:01:03.634Z,9.57
2024-02-16T22:03:36.227Z,8.65
2024-02-16T22:06:07.599Z,10.63
2024-02-16T22:08:37.739Z,14.10
2024-02-16T22:11:08.613Z,10.23
2024-02-16T22:13:38.488Z,9.52
2024-02-16T22:16:08.596Z,10.65
2024-02-16T22:18:41.752Z,10.50
2024-02-16T22:21:11.760Z,8.40
2024-02-16T22:23:41.657Z,10.00
2024-02-16T22:26:12.415Z,7.93
2024-02-16T22:28:42.487Z,8.57
2024-02-16T22:31:12.365Z,7.40
2024-02-16T22:33:44.901Z,10.18
2024-02-16T22:36:15.080Z,8.32
2024-02-16T22:38:45.027Z,8.38
2024-02-16T22:41:18.248Z,9.77
2024-02-16T22:43:48.140Z,11.25
2024-02-16T22:46:18.268Z,9.88
2024-02-16T22:48:51.269Z,7.50
2024-02-16T22:51:21.546Z,9.85
2024-02-16T22:53:51.528Z,8.63
2024-02-16T22:56:22.009Z,7.28
2024-02-16T22:58:52.155Z,7.28
2024-02-16T23:01:22.113Z,8.73
2024-02-16T23:03:54.723Z,10.65
2024-02-16T23:06:24.748Z,9.57
2024-02-16T23:08:54.959Z,7.38
2024-02-16T23:11:24.823Z,11.35
2024-02-16T23:13:54.684Z,9.82
2024-02-16T23:16:27.247Z,11.23
2024-02-16T23:18:59.904Z,8.90
2024-02-16T23:21:30.211Z,11.30
2024-02-16T23:24:00.194Z,13.73
2024-02-16T23:26:30.420Z,11.73
2024-02-16T23:29:00.549Z,9.73
2024-02-16T23:31:31.042Z,9.02
2024-02-16T23:34:04.239Z,8.45
2024-02-16T23:36:34.603Z,10.55
2024-02-16T23:39:04.854Z,12.82
2024-02-16T23:41:34.872Z,10.35
2024-02-16T23:44:05.253Z,12.57
2024-02-16T23:46:37.611Z,8.63
2024-02-16T23:49:10.138Z,9.38
2024-02-16T23:51:40.431Z,11.38
2024-02-16T23:54:10.850Z,14.60
2024-02-16T23:56:40.825Z,9.82
2024-02-16T23:59:10.629Z,13.05
